Time;durP1;ratioP1;P1;durP2;ratioP2;P2;SDS_P1;SDS_P2;PMS_P1;PMS_P2;Temp;Humidity;BMP_temperature;BMP_pressure;BME280_temperature;BME280_humidity;BME280_pressure;Samples;Min_cycle;Max_cycle;Signal;HPM_P1;HPM_P2
2021/04/22 00:01:50;;;;;;;8.88;1.77;;;;;;;5.92;49.89;100805.31;5003008;28;20037;-76
2021/04/22 00:04:15;;;;;;;12.27;1.60;;;;;;;5.86;50.25;100799.06;4999344;28;20125;-76
2021/04/22 00:06:41;;;;;;;11.27;2.50;;;;;;;5.83;50.12;100799.00;5002417;28;20042;-76
2021/04/22 00:09:08;;;;;;;8.35;1.45;;;;;;;5.79;50.67;100799.81;4998871;28;20049;-76
2021/04/22 00:11:33;;;;;;;7.72;1.52;;;;;;;5.77;50.77;100798.91;5003152;28;20042;-76
2021/04/22 00:13:59;;;;;;;9.77;1.65;;;;;;;5.71;51.41;100803.19;5000515;28;20044;-76
2021/04/22 00:16:25;;;;;;;8.80;1.88;;;;;;;5.62;52.01;100803.00;5002899;28;20041;-76
2021/04/22 00:18:50;;;;;;;7.07;1.52;;;;;;;5.65;52.02;100799.56;4996684;28;20054;-76
2021/04/22 00:21:16;;;;;;;7.00;1.58;;;;;;;5.59;52.35;100816.06;5016388;28;20462;-76
2021/04/22 00:23:42;;;;;;;7.50;1.50;;;;;;;5.50;52.67;100813.25;5001639;28;20490;-76
2021/04/22 00:26:07;;;;;;;9.45;1.70;;;;;;;5.42;52.91;100810.50;5001951;28;20042;-76
2021/04/22 00:28:32;;;;;;;12.50;2.20;;;;;;;5.34;53.45;100824.28;5001290;28;20077;-76
2021/04/22 00:30:58;;;;;;;13.15;1.80;;;;;;;5.35;53.03;100826.06;5002311;28;20069;-76
2021/04/22 00:33:23;;;;;;;21.92;2.42;;;;;;;5.25;52.93;100831.09;5000537;28;20069;-76
2021/04/22 00:35:50;;;;;;;7.63;1.58;;;;;;;5.29;52.47;100829.41;5002586;28;20040;-76
2021/04/22 00:38:16;;;;;;;7.18;1.50;;;;;;;5.24;52.50;100833.72;4998864;28;20030;-76
2021/04/22 00:40:42;;;;;;;12.75;1.77;;;;;;;5.19;52.50;100841.44;4998409;28;20022;-76
2021/04/22 00:43:11;;;;;;;9.73;1.85;;;;;;;5.20;52.51;100844.94;4999358;28;20062;-76
2021/04/22 00:45:42;;;;;;;12.35;2.97;;;;;;;5.10;53.33;100846.47;5002664;28;20079;-76
2021/04/22 00:48:09;;;;;;;10.77;1.90;;;;;;;5.00;53.56;100844.50;5018432;28;20132;-76
2021/04/22 00:50:37;;;;;;;8.77;1.83;;;;;;;4.97;53.33;100847.06;5007277;28;20041;-76
2021/04/22 00:53:04;;;;;;;11.13;2.00;;;;;;;4.89;53.92;100844.28;5006669;28;20038;-76
2021/04/22 00:55:30;;;;;;;7.93;1.50;;;;;;;4.80;54.80;100850.19;5004539;28;20058;-76
2021/04/22 00:57:56;;;;;;;11.60;1.73;;;;;;;4.74;54.80;100852.69;5016258;28;20497;-76
2021/04/22 01:00:25;;;;;;;9.70;1.77;;;;;;;4.66;55.01;100859.44;5006315;28;20409;-76
2021/04/22 01:02:51;;;;;;;10.85;2.08;;;;;;;4.64;55.02;100860.25;5008445;28;20048;-76
2021/04/22 01:05:19;;;;;;;11.23;2.03;;;;;;;4.59;55.43;100857.56;5007199;28;20418;-76
2021/04/22 01:07:45;;;;;;;12.23;1.80;;;;;;;4.54;55.05;100861.81;5007870;28;20552;-76
2021/04/22 01:10:14;;;;;;;10.95;2.17;;;;;;;4.57;55.40;100854.91;5008055;28;20034;-76
2021/04/22 01:12:39;;;;;;;7.22;1.75;;;;;;;4.51;55.92;100864.34;5006629;28;20671;-76
2021/04/22 01:15:07;;;;;;;10.77;2.22;;;;;;;4.46;55.93;100865.97;5007685;28;20044;-76
2021/04/22 01:17:34;;;;;;;12.40;1.80;;;;;;;4.36;56.40;100870.94;5006912;28;20457;-76
2021/04/22 01:19:59;;;;;;;14.70;1.92;;;;;;;4.29;56.52;100866.41;5009029;28;20046;-76
2021/04/22 01:22:25;;;;;;;9.45;2.13;;;;;;;4.28;55.83;100872.50;5008965;28;20104;-76
2021/04/22 01:24:50;;;;;;;11.75;2.05;;;;;;;4.23;55.89;100874.13;5005081;28;20046;-76
2021/04/22 01:27:15;;;;;;;9.63;2.10;;;;;;;4.18;56.50;100874.00;5008804;28;20033;-76
2021/04/22 01:29:41;;;;;;;14.05;2.88;;;;;;;4.16;56.40;100880.03;5006911;28;20038;-76
2021/04/22 01:32:06;;;;;;;10.70;2.15;;;;;;;4.13;56.67;100877.34;5008834;28;20038;-75
2021/04/22 01:34:32;;;;;;;11.38;2.13;;;;;;;4.11;56.70;100882.53;5007892;28;20034;-76
2021/04/22 01:36:57;;;;;;;14.63;2.08;;;;;;;4.01;57.13;100882.22;5003004;28;20070;-76
2021/04/22 01:39:22;;;;;;;13.60;2.40;;;;;;;3.96;57.69;100884.75;5007632;28;20125;-76
2021/04/22 01:41:48;;;;;;;11.02;2.13;;;;;;;3.92;57.87;100873.31;5006899;28;20165;-76
2021/04/22 01:44:13;;;;;;;10.25;2.42;;;;;;;3.87;58.16;100880.16;5019992;28;20625;-76
2021/04/22 01:46:38;;;;;;;12.18;2.40;;;;;;;3.81;58.39;100880.00;5007151;28;20673;-76
2021/04/22 01:49:04;;;;;;;12.05;2.05;;;;;;;3.81;58.37;100884.34;5005464;28;20050;-76
2021/04/22 01:51:29;;;;;;;9.07;2.10;;;;;;;3.76;58.49;100881.59;5007283;28;20030;-76
2021/04/22 01:53:54;;;;;;;15.57;3.10;;;;;;;3.71;58.72;100889.28;5005670;28;20414;-76
2021/04/22 01:56:20;;;;;;;10.27;2.25;;;;;;;3.63;58.70;100885.59;5020678;28;20572;-76
2021/04/22 01:58:46;;;;;;;10.55;2.55;;;;;;;3.60;59.30;100884.63;5003472;28;20253;-76
2021/04/22 02:01:11;;;;;;;12.05;1.90;;;;;;;3.56;59.15;100893.22;5005916;28;20042;-76
2021/04/22 02:03:37;;;;;;;9.10;2.20;;;;;;;3.48;59.33;100888.69;5002770;28;20038;-76
2021/04/22 02:06:05;;;;;;;10.82;2.53;;;;;;;3.44;59.70;100889.41;5005211;28;20049;-76
2021/04/22 02:08:31;;;;;;;15.32;2.20;;;;;;;3.39;60.13;100895.34;5019014;28;20041;-76
2021/04/22 02:10:58;;;;;;;10.10;2.38;;;;;;;3.34;60.05;100892.59;5002947;28;20030;-76
2021/04/22 02:13:25;;;;;;;16.50;2.58;;;;;;;3.28;59.59;100895.03;5019350;28;20041;-76
2021/04/22 02:15:51;;;;;;;14.90;2.80;;;;;;;3.24;59.75;100898.38;4985779;28;20056;-76
2021/04/22 02:18:17;;;;;;;14.98;2.97;;;;;;;3.23;60.09;100894.91;5005248;28;20477;-76
2021/04/22 02:20:43;;;;;;;15.93;2.90;;;;;;;3.19;59.43;100903.47;5004496;28;20038;-76
2021/04/22 02:23:12;;;;;;;15.93;2.70;;;;;;;3.17;60.45;100894.72;5008577;28;20038;-76
2021/04/22 02:25:37;;;;;;;14.70;3.72;;;;;;;3.17;60.33;100904.25;5005005;28;20041;-76
2021/04/22 02:28:03;;;;;;;15.57;3.17;;;;;;;3.15;59.56;100901.63;5004488;28;20038;-76
2021/04/22 02:30:30;;;;;;;12.63;2.70;;;;;;;3.13;59.85;100905.03;5004779;28;20073;-76
2021/04/22 02:32:58;;;;;;;15.52;2.88;;;;;;;3.10;59.52;100907.53;5001633;28;20379;-76
2021/04/22 02:35:26;;;;;;;17.02;2.92;;;;;;;3.05;59.81;100900.44;5009722;28;20037;-76
2021/04/22 02:37:52;;;;;;;15.93;3.65;;;;;;;2.99;60.04;100900.28;5001704;28;20038;-76
2021/04/22 02:40:20;;;;;;;17.83;3.63;;;;;;;2.96;60.03;100905.41;5004680;28;20037;-76
2021/04/22 02:42:46;;;;;;;17.20;2.92;;;;;;;2.91;60.60;100900.84;5000021;28;20031;-76
2021/04/22 02:45:14;;;;;;;15.40;3.05;;;;;;;2.86;60.53;100903.34;5005331;28;20389;-76
2021/04/22 02:47:40;;;;;;;15.05;3.60;;;;;;;2.82;60.88;100896.25;5001120;28;20042;-76
2021/04/22 02:50:08;;;;;;;12.18;3.58;;;;;;;2.80;61.04;100904.03;5004413;28;20091;-76
2021/04/22 02:52:34;;;;;;;12.60;3.03;;;;;;;2.77;60.68;100908.25;5001551;28;20034;-76
2021/04/22 02:54:59;;;;;;;17.80;3.42;;;;;;;2.70;61.20;100909.81;5003425;28;20045;-76
2021/04/22 02:57:24;;;;;;;11.32;3.00;;;;;;;2.66;61.90;100904.44;5003359;28;20093;-76
2021/04/22 02:59:50;;;;;;;16.85;2.80;;;;;;;2.61;62.34;100912.09;5001597;28;20030;-76
2021/04/22 03:02:15;;;;;;;13.60;3.47;;;;;;;2.52;62.15;100910.09;5003501;28;20042;-76
2021/04/22 03:04:40;;;;;;;16.33;2.80;;;;;;;2.52;62.76;100911.81;5002216;28;20030;-76
2021/04/22 03:07:06;;;;;;;18.30;3.72;;;;;;;2.47;62.25;100914.28;5016078;28;20046;-76
2021/04/22 03:09:31;;;;;;;11.50;2.92;;;;;;;2.39;62.72;100907.94;5004261;28;20033;-76
2021/04/22 03:11:56;;;;;;;17.17;3.25;;;;;;;2.31;63.11;100906.78;5001101;28;20193;-76
2021/04/22 03:14:22;;;;;;;17.05;2.78;;;;;;;2.29;63.33;100903.25;5004703;28;20240;-76
2021/04/22 03:16:47;;;;;;;14.40;3.20;;;;;;;2.26;63.34;100911.84;5001091;28;20034;-76
2021/04/22 03:19:13;;;;;;;21.02;4.03;;;;;;;2.22;63.39;100911.69;5004548;28;20133;-76
2021/04/22 03:21:38;;;;;;;11.55;2.88;;;;;;;2.17;63.95;100915.03;4996591;28;20124;-76
2021/04/22 03:24:04;;;;;;;9.05;3.00;;;;;;;2.11;64.15;100909.59;5001384;28;20140;-76
2021/04/22 03:26:29;;;;;;;11.07;2.78;;;;;;;2.10;64.27;100910.44;5003545;28;20116;-76
2021/04/22 03:28:54;;;;;;;13.65;2.80;;;;;;;2.06;64.17;100916.34;5002062;28;20173;-76
2021/04/22 03:31:20;;;;;;;10.32;3.15;;;;;;;2.02;64.53;100922.31;5002974;28;20120;-76
2021/04/22 03:33:45;;;;;;;20.27;3.40;;;;;;;2.00;64.58;100921.38;5002332;28;20042;-76
2021/04/22 03:36:11;;;;;;;16.73;3.63;;;;;;;2.00;64.50;100926.56;5002526;28;20045;-76
2021/04/22 03:38:36;;;;;;;16.38;2.95;;;;;;;1.98;64.89;100926.50;5001537;28;20030;-76
2021/04/22 03:41:02;;;;;;;14.65;3.53;;;;;;;1.97;64.83;100929.06;5001717;28;20033;-77
2021/04/22 03:43:27;;;;;;;16.38;3.38;;;;;;;1.94;65.64;100931.56;5002886;28;20069;-76
2021/04/22 03:45:53;;;;;;;13.70;2.85;;;;;;;1.97;64.77;100942.09;5001347;28;20053;-76
2021/04/22 03:48:18;;;;;;;17.95;3.85;;;;;;;2.02;65.49;100937.94;5003765;28;20409;-76
2021/04/22 03:50:43;;;;;;;15.73;3.88;;;;;;;2.05;65.30;100945.84;4999576;28;20122;-76
2021/04/22 03:53:09;;;;;;;16.15;2.90;;;;;;;2.10;65.84;100948.63;4997723;28;20106;-76
2021/04/22 03:55:34;;;;;;;17.92;3.15;;;;;;;2.09;65.90;100947.69;5008158;28;20088;-77
2021/04/22 03:57:59;;;;;;;12.88;3.58;;;;;;;2.08;65.73;100948.53;5000564;28;20026;-76
2021/04/22 04:00:25;;;;;;;12.55;2.78;;;;;;;2.07;66.08;100958.91;5003635;28;20444;-77
2021/04/22 04:02:51;;;;;;;16.65;2.97;;;;;;;2.04;66.22;100954.47;5000548;28;20410;-76
2021/04/22 04:05:16;;;;;;;11.57;3.20;;;;;;;2.05;66.10;100953.66;5002953;28;20506;-77
2021/04/22 04:07:42;;;;;;;12.55;3.35;;;;;;;2.12;65.88;100957.34;5001427;28;20125;-77
2021/04/22 04:10:09;;;;;;;22.25;3.97;;;;;;;2.15;66.12;100958.34;5002290;28;20062;-76
2021/04/22 04:12:35;;;;;;;15.30;3.58;;;;;;;2.23;66.64;100963.81;5004483;28;20038;-76
2021/04/22 04:15:01;;;;;;;18.30;3.30;;;;;;;2.29;66.69;100956.22;5002305;28;20403;-76
2021/04/22 04:17:27;;;;;;;16.33;3.55;;;;;;;2.42;66.41;100958.41;5001075;28;20070;-77
2021/04/22 04:19:52;;;;;;;18.30;3.22;;;;;;;2.49;66.29;100959.50;5002904;28;20096;-76
2021/04/22 04:22:17;;;;;;;15.43;3.20;;;;;;;2.55;66.08;100959.69;4998553;28;20089;-74
2021/04/22 04:24:43;;;;;;;18.77;3.30;;;;;;;2.65;66.05;100966.09;5003442;28;20045;-77
2021/04/22 04:27:08;;;;;;;18.58;3.40;;;;;;;2.64;66.22;100959.09;4999147;28;20041;-78
2021/04/22 04:29:34;;;;;;;20.30;3.83;;;;;;;2.69;65.74;100951.44;5004925;28;20034;-76
2021/04/22 04:31:59;;;;;;;15.07;3.83;;;;;;;2.75;66.29;100964.66;5001631;28;20042;-76
2021/04/22 04:34:25;;;;;;;14.63;3.33;;;;;;;2.86;66.27;100960.69;5003240;28;20041;-77
2021/04/22 04:36:50;;;;;;;22.75;5.10;;;;;;;2.99;65.37;100957.66;5005811;28;20401;-75
2021/04/22 04:39:16;;;;;;;16.45;3.83;;;;;;;3.02;65.88;100957.72;5003986;28;20038;-76
2021/04/22 04:41:42;;;;;;;15.07;2.85;;;;;;;3.16;65.31;100967.69;5001960;28;20037;-77
2021/04/22 04:44:09;;;;;;;18.55;3.85;;;;;;;3.23;65.54;100967.94;5013029;28;20034;-76
2021/04/22 04:46:34;;;;;;;14.02;3.65;;;;;;;3.32;64.82;100963.84;5001760;28;20128;-76
2021/04/22 04:49:00;;;;;;;16.35;4.30;;;;;;;3.37;64.36;100965.75;5016174;28;20064;-76
2021/04/22 04:51:25;;;;;;;22.52;3.95;;;;;;;3.40;63.83;100971.03;5000414;28;20057;-77
2021/04/22 04:53:51;;;;;;;17.70;2.80;;;;;;;3.44;64.36;100967.69;5000384;28;20038;-76
2021/04/22 04:56:18;;;;;;;20.88;4.35;;;;;;;3.57;64.11;100974.16;5003192;28;20133;-77
2021/04/22 04:58:45;;;;;;;18.98;4.80;;;;;;;3.54;64.47;100978.41;4998417;28;20034;-76
2021/04/22 05:01:11;;;;;;;16.13;3.60;;;;;;;3.61;63.88;100977.75;4999560;28;20042;-76
2021/04/22 05:03:36;;;;;;;15.55;3.90;;;;;;;3.73;63.33;100980.72;5001522;28;20030;-76
2021/04/22 05:06:02;;;;;;;11.18;2.97;;;;;;;3.78;63.17;100986.97;5001812;28;20389;-76
2021/04/22 05:08:27;;;;;;;16.63;3.78;;;;;;;3.76;63.22;100980.81;5006799;28;20030;-76
2021/04/22 05:10:52;;;;;;;18.25;3.85;;;;;;;3.91;64.01;100977.75;5003962;28;20042;-76
2021/04/22 05:13:18;;;;;;;14.25;3.20;;;;;;;4.09;63.13;100987.81;5004757;28;20037;-76
2021/04/22 05:15:43;;;;;;;13.20;3.35;;;;;;;4.12;62.97;100986.16;5002012;28;20121;-76
2021/04/22 05:18:09;;;;;;;15.07;3.65;;;;;;;4.09;62.56;100995.66;5017153;28;20043;-76
2021/04/22 05:20:34;;;;;;;14.70;3.90;;;;;;;4.20;62.73;100986.38;5000968;28;20033;-76
2021/04/22 05:22:59;;;;;;;13.57;3.90;;;;;;;4.33;62.67;100996.31;5001069;28;20475;-76
2021/04/22 05:25:25;;;;;;;13.60;3.67;;;;;;;4.35;62.30;100999.84;5000371;28;20034;-76
2021/04/22 05:27:50;;;;;;;16.77;3.38;;;;;;;4.49;62.27;100996.72;5003419;28;20030;-76
2021/04/22 05:30:16;;;;;;;13.23;3.08;;;;;;;4.55;62.31;101002.97;5002126;28;20426;-76
2021/04/22 05:32:41;;;;;;;23.13;4.35;;;;;;;4.63;61.99;101008.41;5024014;28;20061;-76
2021/04/22 05:35:08;;;;;;;16.00;4.15;;;;;;;4.67;61.34;101002.41;5001902;28;20085;-76
2021/04/22 05:37:33;;;;;;;16.83;4.25;;;;;;;4.73;61.11;101015.63;5002866;28;20126;-76
2021/04/22 05:39:59;;;;;;;19.05;4.07;;;;;;;4.81;60.69;101011.47;5005112;28;20548;-76
2021/04/22 05:42:24;;;;;;;12.75;3.97;;;;;;;4.89;60.20;101016.03;5003028;28;20586;-76
2021/04/22 05:44:49;;;;;;;21.27;3.70;;;;;;;4.93;60.02;101015.28;5005681;28;20510;-76
2021/04/22 05:47:15;;;;;;;12.15;3.17;;;;;;;5.05;59.56;101012.94;5008367;28;20073;-76
2021/04/22 05:49:40;;;;;;;18.95;3.88;;;;;;;5.10;59.14;101024.38;5003844;28;20137;-76
2021/04/22 05:52:06;;;;;;;16.52;3.60;;;;;;;5.09;58.85;101017.41;5004540;28;20049;-76
2021/04/22 05:54:31;;;;;;;18.33;4.43;;;;;;;5.26;58.76;101016.03;5004160;28;20030;-76
2021/04/22 05:56:57;;;;;;;20.52;4.07;;;;;;;5.21;58.65;101022.03;5004262;28;20066;-76
2021/04/22 05:59:22;;;;;;;15.80;3.88;;;;;;;5.25;58.08;101022.13;5004653;28;20038;-76
2021/04/22 06:01:47;;;;;;;17.02;3.60;;;;;;;5.33;57.89;101017.09;5002157;28;20046;-76
2021/04/22 06:04:13;;;;;;;19.27;4.45;;;;;;;5.46;57.42;101023.47;5003783;28;20061;-76
2021/04/22 06:06:38;;;;;;;15.60;3.65;;;;;;;5.53;57.47;101009.69;5003190;28;20034;-76
2021/04/22 06:09:04;;;;;;;15.00;3.33;;;;;;;5.56;57.40;101019.34;5005463;28;20041;-76
2021/04/22 06:11:29;;;;;;;14.48;3.55;;;;;;;5.61;57.45;101017.72;5002098;28;20042;-76
2021/04/22 06:13:55;;;;;;;15.48;4.38;;;;;;;5.70;58.00;101005.69;5006158;28;20044;-76
2021/04/22 06:16:20;;;;;;;18.35;5.45;;;;;;;5.92;56.15;101029.69;5000986;28;20044;-76
2021/04/22 06:18:46;;;;;;;17.52;4.25;;;;;;;5.79;56.30;101023.34;5005582;28;20080;-76
2021/04/22 06:21:12;;;;;;;15.43;4.30;;;;;;;5.76;56.78;101022.38;5014494;28;20445;-76
2021/04/22 06:23:37;;;;;;;24.90;5.07;;;;;;;5.87;56.57;101018.28;5017761;28;20467;-76
2021/04/22 06:26:03;;;;;;;24.02;4.93;;;;;;;5.91;56.86;101013.09;5004524;28;20116;-76
2021/04/22 06:28:28;;;;;;;17.30;4.65;;;;;;;5.96;56.97;101009.75;5003297;28;20482;-76
2021/04/22 06:30:53;;;;;;;22.02;5.05;;;;;;;5.95;56.32;101016.72;5004057;28;20044;-76
2021/04/22 06:33:19;;;;;;;19.45;4.38;;;;;;;5.95;55.70;101018.44;5003463;28;20076;-76
2021/04/22 06:35:45;;;;;;;10.18;3.80;;;;;;;5.99;55.44;101031.63;5003376;28;20041;-76
2021/04/22 06:38:11;;;;;;;20.80;4.50;;;;;;;6.02;55.13;101022.94;5019320;28;20042;-76
2021/04/22 06:40:37;;;;;;;18.88;4.05;;;;;;;6.13;55.02;101026.66;5002625;28;20038;-76
2021/04/22 06:43:02;;;;;;;14.65;3.65;;;;;;;6.22;54.47;101041.72;4999793;28;20034;-76
2021/04/22 06:45:27;;;;;;;40.85;5.72;;;;;;;6.10;54.21;101024.91;5004443;28;20606;-76
2021/04/22 06:47:53;;;;;;;17.10;3.35;;;;;;;6.04;55.20;101024.75;5005117;28;20061;-76
2021/04/22 06:50:25;;;;;;;18.58;3.58;;;;;;;6.08;55.48;101029.22;5005451;28;20073;-76
2021/04/22 06:52:51;;;;;;;14.85;3.58;;;;;;;6.10;54.00;101030.13;5002229;28;20088;-76
2021/04/22 06:55:22;;;;;;;16.90;3.97;;;;;;;6.24;55.10;101027.78;5002552;28;20601;-76
2021/04/22 06:57:48;;;;;;;23.00;4.22;;;;;;;6.27;54.24;101038.31;5015718;28;20037;-76
2021/04/22 07:00:18;;;;;;;18.25;4.20;;;;;;;6.31;54.32;101018.28;5019206;28;20050;-76
2021/04/22 07:02:43;;;;;;;19.88;4.10;;;;;;;6.15;54.36;101032.81;5001053;28;20042;-76
2021/04/22 07:05:09;;;;;;;15.48;4.40;;;;;;;6.40;55.03;101060.41;5005075;28;20046;-76
2021/04/22 07:07:35;;;;;;;10.68;3.58;;;;;;;6.63;53.99;101021.50;4996972;28;20038;-76
2021/04/22 07:10:00;;;;;;;13.48;4.03;;;;;;;7.07;52.49;101025.72;5001586;28;20057;-76
2021/04/22 07:12:26;;;;;;;16.95;4.20;;;;;;;7.22;53.40;101037.34;5003855;28;20034;-76
2021/04/22 07:14:51;;;;;;;15.38;4.07;;;;;;;7.23;52.35;101030.34;5008903;28;20060;-76
2021/04/22 07:17:17;;;;;;;14.35;3.67;;;;;;;7.14;52.53;101044.22;5011607;28;20038;-76
2021/04/22 07:19:43;;;;;;;16.58;4.25;;;;;;;7.12;52.95;101040.69;5000946;28;20018;-76
2021/04/22 07:22:08;;;;;;;15.50;3.67;;;;;;;7.01;52.89;101034.38;5004735;28;20045;-76
2021/04/22 07:24:33;;;;;;;15.25;4.05;;;;;;;7.20;53.10;101035.56;5011607;28;20061;-76
2021/04/22 07:26:59;;;;;;;18.83;4.43;;;;;;;7.42;52.42;101039.41;5002303;28;20049;-76
2021/04/22 07:29:24;;;;;;;18.70;3.75;;;;;;;7.44;51.85;101030.69;5003202;28;20037;-76
2021/04/22 07:31:50;;;;;;;14.10;3.83;;;;;;;7.56;51.55;101044.84;5003881;28;20034;-76
2021/04/22 07:34:15;;;;;;;18.52;4.43;;;;;;;7.29;51.15;101034.84;5003664;28;20049;-76
2021/04/22 07:36:41;;;;;;;15.80;4.43;;;;;;;7.25;51.34;101040.00;5001355;28;20030;-76
2021/04/22 07:39:06;;;;;;;18.33;3.92;;;;;;;7.11;51.81;101035.44;4999102;28;20108;-76
2021/04/22 07:41:32;;;;;;;17.63;4.07;;;;;;;7.18;51.82;101059.19;5019013;28;20065;-77
2021/04/22 07:43:57;;;;;;;14.82;3.72;;;;;;;7.21;51.58;101029.47;5013305;28;20053;-76
2021/04/22 07:46:23;;;;;;;13.50;3.53;;;;;;;7.25;51.67;101050.50;5000880;28;20040;-76
2021/04/22 07:48:48;;;;;;;16.80;3.65;;;;;;;7.25;51.62;101041.75;5003739;28;20048;-76
2021/04/22 07:51:14;;;;;;;13.25;2.97;;;;;;;7.36;47.98;101037.59;5014751;28;20072;-76
2021/04/22 07:53:39;;;;;;;13.85;3.03;;;;;;;7.38;48.51;101045.47;5005760;28;20096;-77
2021/04/22 07:56:04;;;;;;;9.90;2.58;;;;;;;7.21;46.38;101085.47;5005471;28;20058;-76
2021/04/22 07:58:31;;;;;;;10.48;2.25;;;;;;;7.13;46.69;101055.59;5019370;28;20139;-76
2021/04/22 08:00:59;;;;;;;10.35;2.97;;;;;;;7.28;45.31;101049.69;5002468;28;20540;-76
2021/04/22 08:03:24;;;;;;;12.82;3.35;;;;;;;7.49;44.82;101064.00;5000907;28;20038;-76
2021/04/22 08:05:55;;;;;;;10.48;2.28;;;;;;;7.69;45.80;101057.31;5005312;28;20088;-76
2021/04/22 08:08:21;;;;;;;11.90;2.50;;;;;;;7.76;44.55;101059.16;4999842;28;20049;-76
2021/04/22 08:10:48;;;;;;;16.45;3.35;;;;;;;7.72;45.04;101041.56;4998709;28;20034;-76
2021/04/22 08:13:15;;;;;;;17.30;3.28;;;;;;;7.76;45.32;101045.16;5002587;28;20133;-76
2021/04/22 08:15:42;;;;;;;13.73;3.13;;;;;;;7.58;45.49;101043.13;4998366;28;20039;-76
2021/04/22 08:18:08;;;;;;;12.30;2.50;;;;;;;7.55;46.69;101053.59;5016511;28;20116;-76
2021/04/22 08:20:34;;;;;;;16.80;4.03;;;;;;;7.37;45.33;101089.22;5001741;28;20117;-76
2021/04/22 08:23:01;;;;;;;16.08;2.92;;;;;;;7.15;46.97;101058.22;5009883;28;20448;-76
2021/04/22 08:25:33;;;;;;;15.15;2.90;;;;;;;7.28;47.11;101048.81;5001318;28;20042;-76
2021/04/22 08:28:00;;;;;;;11.73;3.05;;;;;;;7.59;45.80;101063.28;5007250;28;20042;-76
2021/04/22 08:30:30;;;;;;;12.43;3.13;;;;;;;7.88;45.88;101046.16;5003232;28;20124;-76
2021/04/22 08:32:58;;;;;;;10.40;2.58;;;;;;;8.37;45.40;101053.78;5001982;28;20485;-76
2021/04/22 08:35:24;;;;;;;10.68;3.03;;;;;;;8.26;43.51;101074.69;5006934;28;20034;-76
2021/04/22 08:37:49;;;;;;;10.02;2.58;;;;;;;8.22;42.68;101069.38;5002835;28;20034;-76
2021/04/22 08:40:15;;;;;;;11.82;2.78;;;;;;;7.96;43.61;101045.38;4998695;28;20129;-76
2021/04/22 08:42:41;;;;;;;8.88;2.15;;;;;;;7.55;43.56;101051.84;5005769;28;20065;-76
2021/04/22 08:45:12;;;;;;;11.65;2.60;;;;;;;7.78;43.38;101057.44;5005356;28;20473;-76
2021/04/22 08:47:39;;;;;;;12.88;2.58;;;;;;;8.20;43.33;101064.13;5018572;28;20029;-76
2021/04/22 08:50:07;;;;;;;11.23;2.90;;;;;;;8.56;41.60;101066.28;4994694;28;20141;-76
2021/04/22 08:52:32;;;;;;;10.43;2.65;;;;;;;8.54;41.45;101067.13;5005661;28;20445;-76
2021/04/22 08:54:58;;;;;;;12.90;2.47;;;;;;;8.72;41.86;101062.09;5000726;28;20038;-76
2021/04/22 08:57:25;;;;;;;9.20;2.53;;;;;;;8.76;41.79;101045.44;5001695;28;20045;-77
2021/04/22 08:59:53;;;;;;;10.43;3.05;;;;;;;8.76;41.95;101034.91;5001555;28;20030;-77
2021/04/22 09:02:19;;;;;;;12.95;2.45;;;;;;;8.99;40.94;101071.97;4999039;28;20039;-76
2021/04/22 09:04:46;;;;;;;12.52;2.78;;;;;;;9.17;41.58;101068.63;5002209;28;20073;-77
2021/04/22 09:07:11;;;;;;;12.02;2.83;;;;;;;9.25;41.32;101067.78;4999692;28;20538;-76
2021/04/22 09:09:37;;;;;;;9.40;2.45;;;;;;;9.21;40.87;101062.50;5006480;28;20121;-76
2021/04/22 09:12:14;;;;;;;11.82;2.53;;;;;;;9.01;40.65;101079.88;5001676;28;20049;-77
2021/04/22 09:15:00;;;;;;;13.52;2.60;;;;;;;8.91;41.05;101080.69;5004399;28;20038;-76
2021/04/22 09:17:27;;;;;;;13.07;2.67;;;;;;;8.88;42.35;101078.00;5004328;28;20042;-76
2021/04/22 09:19:53;;;;;;;9.40;2.33;;;;;;;9.07;41.48;101084.34;5004184;28;20044;-76
2021/04/22 09:22:19;;;;;;;12.68;2.50;;;;;;;9.32;40.52;101075.75;5004696;28;20042;-76
2021/04/22 09:24:45;;;;;;;12.45;2.85;;;;;;;9.53;40.16;101069.75;5004672;28;20128;-76
2021/04/22 09:27:16;;;;;;;14.43;2.72;;;;;;;9.40;40.48;101086.34;5005442;28;20073;-76
2021/04/22 09:29:46;;;;;;;10.35;2.40;;;;;;;9.18;40.16;101075.66;5002173;28;20042;-76
2021/04/22 09:32:12;;;;;;;13.10;3.38;;;;;;;8.61;41.92;101074.22;5003000;28;20133;-76
2021/04/22 09:34:40;;;;;;;13.63;2.50;;;;;;;8.65;40.70;101078.69;4988298;28;20116;-76
2021/04/22 09:37:06;;;;;;;10.55;2.20;;;;;;;9.08;41.64;101068.53;5004115;28;20034;-76
2021/04/22 09:39:32;;;;;;;7.30;2.67;;;;;;;9.52;40.59;101068.00;5005086;28;20383;-76
2021/04/22 09:42:00;;;;;;;9.45;2.55;;;;;;;9.99;40.69;101067.41;5004432;28;20048;-76
2021/04/22 09:44:26;;;;;;;15.25;3.42;;;;;;;9.72;39.70;101065.50;5003919;28;20038;-77
2021/04/22 09:47:05;;;;;;;10.98;2.80;;;;;;;9.40;39.96;101078.44;5002671;28;20038;-76
2021/04/22 09:49:31;;;;;;;13.10;2.60;;;;;;;9.48;40.84;101052.16;5004294;28;20597;-76
2021/04/22 09:52:08;;;;;;;10.07;2.17;;;;;;;9.35;40.60;101072.25;5002211;28;20030;-77
2021/04/22 09:54:42;;;;;;;8.02;2.47;;;;;;;9.07;40.01;101052.75;5000976;28;20050;-77
2021/04/22 09:57:11;;;;;;;13.95;3.40;;;;;;;9.19;39.62;101085.31;5020004;28;20521;-77
2021/04/22 09:59:42;;;;;;;6.40;2.30;;;;;;;9.76;40.39;101050.56;5006264;28;20128;-76
2021/04/22 10:02:07;;;;;;;16.27;3.22;;;;;;;9.83;39.99;101081.38;5010012;28;20065;-77
2021/04/22 10:04:38;;;;;;;13.68;3.03;;;;;;;10.00;39.58;101053.31;5004036;28;20034;-77
2021/04/22 10:07:19;;;;;;;13.98;2.63;;;;;;;9.94;39.57;101071.75;5007000;28;20034;-77
2021/04/22 10:09:45;;;;;;;12.40;3.55;;;;;;;9.94;40.70;101063.84;5003446;28;20096;-76
2021/04/22 10:12:27;;;;;;;11.70;3.10;;;;;;;10.02;40.19;101063.91;5024492;28;20038;-76
2021/04/22 10:14:54;;;;;;;12.10;2.85;;;;;;;9.83;39.90;101062.94;5005973;28;20045;-77
2021/04/22 10:17:23;;;;;;;10.18;3.05;;;;;;;9.91;39.61;101061.22;5018627;28;20546;-77
2021/04/22 10:19:57;;;;;;;10.27;2.58;;;;;;;10.13;38.67;101066.56;5003750;28;20038;-77
2021/04/22 10:22:30;;;;;;;8.07;2.42;;;;;;;10.06;38.66;101041.91;5002757;28;20405;-78
2021/04/22 10:24:58;;;;;;;11.32;3.08;;;;;;;10.08;40.04;101062.16;5021532;28;20064;-76
2021/04/22 10:27:25;;;;;;;8.50;2.38;;;;;;;10.21;39.12;101068.34;5003454;28;20065;-77
2021/04/22 10:29:51;;;;;;;9.93;2.65;;;;;;;10.27;40.23;101067.50;5004623;28;20041;-77
2021/04/22 10:32:16;;;;;;;10.57;2.75;;;;;;;10.16;40.88;101067.47;4999848;28;20076;-77
2021/04/22 10:34:45;;;;;;;8.70;2.83;;;;;;;10.36;40.15;101046.47;5003736;28;20034;-77
2021/04/22 10:37:11;;;;;;;10.13;3.75;;;;;;;10.21;40.02;101043.75;5013507;28;20540;-77
2021/04/22 10:39:37;;;;;;;8.65;2.92;;;;;;;10.35;40.42;101060.56;5008012;28;20026;-77
2021/04/22 10:42:03;;;;;;;11.95;2.72;;;;;;;10.45;39.29;101078.19;5018607;28;20062;-77
2021/04/22 10:44:31;;;;;;;9.02;2.47;;;;;;;10.28;40.21;101053.47;5003769;28;20042;-77
2021/04/22 10:46:58;;;;;;;11.27;2.67;;;;;;;9.89;38.83;101055.03;5002458;28;20100;-77
2021/04/22 10:49:23;;;;;;;6.85;2.47;;;;;;;10.42;37.70;101074.63;5003946;28;20077;-77
2021/04/22 10:51:49;;;;;;;10.00;2.80;;;;;;;10.96;38.10;101079.16;5003243;28;20065;-77
2021/04/22 10:54:14;;;;;;;9.75;2.47;;;;;;;11.12;38.03;101052.75;5002126;28;20065;-77
2021/04/22 10:56:39;;;;;;;11.98;3.10;;;;;;;10.70;37.26;101070.31;5003911;28;20567;-77
2021/04/22 10:59:05;;;;;;;11.32;2.90;;;;;;;10.26;38.12;101048.16;5003138;28;20387;-80
2021/04/22 11:01:39;;;;;;;7.97;2.53;;;;;;;10.24;38.24;101055.22;5003550;28;20414;-76
2021/04/22 11:04:08;;;;;;;9.55;3.05;;;;;;;10.86;37.45;101043.03;5000995;28;20043;-77
2021/04/22 11:06:36;;;;;;;9.30;2.40;;;;;;;11.24;37.82;101062.41;5003155;28;20034;-77
2021/04/22 11:09:22;;;;;;;10.50;2.97;;;;;;;11.03;36.38;101047.44;5017914;28;20046;-77
2021/04/22 11:11:59;;;;;;;11.73;2.30;;;;;;;10.55;36.68;101070.25;5016753;28;20506;-77
2021/04/22 11:14:39;;;;;;;15.88;3.83;;;;;;;10.50;36.44;101063.19;5002522;28;20037;-77
2021/04/22 11:17:05;;;;;;;10.63;2.50;;;;;;;10.73;37.22;101050.06;4984330;28;20121;-77
2021/04/22 11:19:42;;;;;;;8.45;2.70;;;;;;;10.91;37.57;101048.34;5003997;28;20022;-76
2021/04/22 11:22:22;;;;;;;10.75;2.45;;;;;;;10.91;37.26;101049.22;5015443;28;20042;-77
2021/04/22 11:24:55;;;;;;;9.05;2.95;;;;;;;10.86;38.34;101048.31;5006533;28;20069;-77